Time;durP1;ratioP1;P1;durP2;ratioP2;P2;SDS_P1;SDS_P2;PMS_P1;PMS_P2;Temp;Humidity;BMP_temperature;BMP_pressure;BME280_temperature;BME280_humidity;BME280_pressure;Samples;Min_cycle;Max_cycle;Signal;HPM_P1;HPM_P2
2022/03/30 00:01:49;;;;;;;31.27;13.48;;;7.30;84.40;;;;;;5034365;28;95623;-71
2022/03/30 00:04:16;;;;;;;24.95;13.55;;;7.30;84.40;;;;;;5034017;28;97332;-71
2022/03/30 00:06:43;;;;;;;27.13;12.80;;;7.30;84.40;;;;;;5000924;28;92449;-71
2022/03/30 00:09:10;;;;;;;24.30;13.48;;;7.30;84.40;;;;;;5033005;28;98251;-71
2022/03/30 00:11:37;;;;;;;24.40;13.85;;;7.40;84.30;;;;;;5033726;28;98001;-71
2022/03/30 00:14:04;;;;;;;26.23;14.25;;;7.30;84.20;;;;;;5033995;28;102086;-71
2022/03/30 00:16:33;;;;;;;27.88;14.65;;;7.30;84.00;;;;;;5035269;28;92519;-71
2022/03/30 00:19:02;;;;;;;24.10;13.63;;;7.30;84.10;;;;;;5035426;28;93355;-71
2022/03/30 00:21:29;;;;;;;24.98;13.43;;;7.30;84.20;;;;;;5017196;28;93103;-71
2022/03/30 00:23:56;;;;;;;27.98;13.60;;;7.30;84.30;;;;;;5034045;28;92466;-71
2022/03/30 00:26:23;;;;;;;24.95;12.88;;;7.30;84.40;;;;;;5033739;28;92328;-71
2022/03/30 00:28:51;;;;;;;23.45;12.40;;;7.30;84.40;;;;;;5016927;28;94310;-71
2022/03/30 00:31:18;;;;;;;28.80;14.57;;;7.30;84.40;;;;;;5034920;28;93291;-71
2022/03/30 00:33:46;;;;;;;25.05;14.30;;;7.30;84.40;;;;;;5034422;28;95340;-71
2022/03/30 00:36:13;;;;;;;33.00;16.38;;;7.30;84.20;;;;;;5033917;28;92365;-71
2022/03/30 00:38:40;;;;;;;28.30;16.17;;;7.20;84.20;;;;;;5033902;28;93157;-71
2022/03/30 00:41:07;;;;;;;25.42;15.25;;;7.20;84.40;;;;;;5017311;28;93117;-71
2022/03/30 00:43:34;;;;;;;24.50;15.50;;;7.20;84.50;;;;;;5016782;28;92647;-71
2022/03/30 00:46:01;;;;;;;25.50;15.43;;;7.20;84.60;;;;;;5017462;28;92418;-71
2022/03/30 00:48:29;;;;;;;29.50;16.08;;;7.20;84.80;;;;;;5035051;28;93323;-71
2022/03/30 00:50:56;;;;;;;31.15;15.95;;;7.20;84.90;;;;;;5035430;28;92023;-71
2022/03/30 00:53:23;;;;;;;39.55;16.42;;;7.20;84.90;;;;;;5033546;28;92641;-71
2022/03/30 00:55:52;;;;;;;33.13;17.27;;;7.20;84.80;;;;;;5035185;28;92500;-71
2022/03/30 00:58:21;;;;;;;32.70;17.52;;;7.20;84.80;;;;;;5033699;28;95619;-71
2022/03/30 01:00:49;;;;;;;35.50;18.23;;;7.20;84.90;;;;;;5016268;28;103173;-71
2022/03/30 01:03:16;;;;;;;32.63;19.05;;;7.10;84.90;;;;;;5033659;28;92479;-71
2022/03/30 01:05:43;;;;;;;34.08;17.83;;;7.10;85.00;;;;;;5034754;28;92450;-71
2022/03/30 01:08:11;;;;;;;33.90;17.50;;;7.00;85.10;;;;;;5016552;28;95323;-71
2022/03/30 01:10:38;;;;;;;31.90;17.77;;;7.00;85.30;;;;;;5034438;28;93227;-71
2022/03/30 01:13:07;;;;;;;37.17;18.95;;;7.00;85.30;;;;;;5017263;28;92586;-71
2022/03/30 01:15:34;;;;;;;34.63;18.20;;;6.90;85.40;;;;;;5033748;28;91797;-71
2022/03/30 01:18:02;;;;;;;31.92;17.35;;;6.90;85.50;;;;;;5018242;28;93263;-71
2022/03/30 01:20:29;;;;;;;31.88;17.10;;;6.90;85.60;;;;;;5019454;28;92538;-71
2022/03/30 01:23:00;;;;;;;34.75;18.35;;;6.80;85.60;;;;;;5019328;28;94875;-71
2022/03/30 01:25:27;;;;;;;36.95;16.65;;;6.80;85.80;;;;;;5038128;28;92468;-71
2022/03/30 01:27:55;;;;;;;35.65;17.73;;;6.70;85.80;;;;;;5016550;28;93163;-71
2022/03/30 01:33:07;;;;;;;32.03;18.00;;;6.70;85.80;;;;;;5018425;28;92354;-71
2022/03/30 01:35:36;;;;;;;35.00;17.48;;;6.60;85.80;;;;;;5017960;28;92943;-71
2022/03/30 01:38:03;;;;;;;31.20;17.85;;;6.60;86.60;;;;;;5016678;28;93196;-71
2022/03/30 01:40:30;;;;;;;34.50;17.48;;;6.60;86.10;;;;;;5016705;28;95543;-71
2022/03/30 01:42:57;;;;;;;36.38;18.13;;;6.50;86.10;;;;;;5018029;28;92841;-71
2022/03/30 01:45:25;;;;;;;32.75;17.67;;;6.50;86.20;;;;;;5033376;28;92554;-71
2022/03/30 01:47:57;;;;;;;34.20;16.90;;;6.50;86.20;;;;;;5015356;28;95460;-71
2022/03/30 01:50:25;;;;;;;30.25;16.23;;;6.50;86.20;;;;;;5017614;28;95484;-71
2022/03/30 01:52:52;;;;;;;30.73;16.85;;;6.50;86.20;;;;;;5033065;28;92572;-71
2022/03/30 01:55:20;;;;;;;29.35;16.25;;;6.50;86.10;;;;;;5017938;28;92463;-71
2022/03/30 01:57:47;;;;;;;32.28;16.45;;;6.50;86.30;;;;;;5017063;28;108995;-71
2022/03/30 02:00:15;;;;;;;35.88;17.20;;;6.40;86.30;;;;;;5017579;28;92968;-71
2022/03/30 02:02:43;;;;;;;32.28;17.08;;;6.40;86.30;;;;;;5017375;28;92416;-71
2022/03/30 02:05:10;;;;;;;35.20;16.77;;;6.50;86.50;;;;;;5016996;28;91784;-71
2022/03/30 02:07:39;;;;;;;32.42;17.13;;;6.50;86.50;;;;;;5016016;28;93248;-71
2022/03/30 02:10:08;;;;;;;33.65;17.58;;;6.50;86.30;;;;;;5017496;28;93153;-71
2022/03/30 02:12:36;;;;;;;32.38;16.90;;;6.50;86.40;;;;;;5016085;28;94980;-71
2022/03/30 02:15:04;;;;;;;28.58;17.42;;;6.60;86.50;;;;;;5032842;28;92584;-71
2022/03/30 02:17:33;;;;;;;31.30;16.80;;;6.60;86.40;;;;;;5016991;28;93276;-71
2022/03/30 02:20:00;;;;;;;32.47;18.20;;;6.70;86.30;;;;;;5016054;28;93236;-71
2022/03/30 02:22:27;;;;;;;27.80;16.30;;;6.70;86.20;;;;;;5016119;28;92470;-71
2022/03/30 02:24:54;;;;;;;33.88;17.08;;;6.80;86.10;;;;;;5017103;28;92413;-71
2022/03/30 02:27:22;;;;;;;35.22;17.35;;;6.90;86.00;;;;;;5015317;28;106685;-71
2022/03/30 02:29:51;;;;;;;29.85;16.80;;;6.90;85.90;;;;;;4999035;28;95719;-71
2022/03/30 02:32:21;;;;;;;36.50;17.50;;;6.90;85.50;;;;;;5017356;28;92495;-72
2022/03/30 02:34:49;;;;;;;28.35;16.10;;;6.90;85.50;;;;;;5017021;28;92881;-71
2022/03/30 02:37:17;;;;;;;35.65;17.13;;;6.90;85.40;;;;;;5030918;28;97387;-71
2022/03/30 02:39:45;;;;;;;31.10;16.83;;;6.90;85.60;;;;;;5015353;28;97909;-71
2022/03/30 02:42:13;;;;;;;33.13;17.98;;;7.00;85.60;;;;;;5015303;28;92552;-71
2022/03/30 02:44:40;;;;;;;30.48;15.05;;;7.00;85.50;;;;;;5017010;28;92418;-71
2022/03/30 02:47:07;;;;;;;27.98;16.33;;;7.10;85.40;;;;;;4999009;28;94214;-71
2022/03/30 02:49:35;;;;;;;34.35;16.55;;;7.10;85.50;;;;;;5016980;28;93156;-71
2022/03/30 02:52:04;;;;;;;28.65;17.55;;;7.10;85.70;;;;;;5015493;28;92567;-71
2022/03/30 02:54:31;;;;;;;32.75;17.30;;;7.10;85.70;;;;;;5017349;28;92545;-71
2022/03/30 02:56:58;;;;;;;33.65;17.60;;;7.20;85.70;;;;;;5016233;28;93268;-71
2022/03/30 02:59:25;;;;;;;30.73;18.55;;;7.20;85.70;;;;;;4998802;28;95543;-71
2022/03/30 03:01:54;;;;;;;33.85;17.17;;;7.30;86.00;;;;;;5015382;28;94912;-71
2022/03/30 03:04:22;;;;;;;31.70;17.73;;;7.30;86.00;;;;;;5015306;28;92579;-71
2022/03/30 03:06:49;;;;;;;32.75;17.98;;;7.30;86.10;;;;;;5015988;28;93221;-71
2022/03/30 03:09:16;;;;;;;36.53;17.05;;;7.40;86.10;;;;;;5031584;28;95709;-71
2022/03/30 03:11:43;;;;;;;30.58;17.33;;;7.40;86.00;;;;;;5016268;28;92465;-71
2022/03/30 03:14:11;;;;;;;32.17;18.33;;;7.40;86.20;;;;;;4998659;28;92549;-71
2022/03/30 03:16:37;;;;;;;33.42;17.80;;;7.40;86.20;;;;;;4998490;28;95953;-71
2022/03/30 03:19:04;;;;;;;32.50;17.65;;;7.50;86.20;;;;;;5016997;28;91903;-71
2022/03/30 03:21:32;;;;;;;32.45;17.48;;;7.50;86.10;;;;;;5015087;28;92555;-71
2022/03/30 03:23:59;;;;;;;35.30;17.95;;;7.50;86.30;;;;;;5016080;28;92680;-71
2022/03/30 03:26:26;;;;;;;31.75;17.63;;;7.50;86.50;;;;;;5013616;28;95567;-71
2022/03/30 03:28:53;;;;;;;30.73;17.30;;;7.50;86.60;;;;;;5016169;28;95371;-71
2022/03/30 03:31:20;;;;;;;31.65;16.95;;;7.50;86.60;;;;;;5014938;28;92460;-71
2022/03/30 03:33:47;;;;;;;31.77;17.40;;;7.50;86.60;;;;;;5016235;28;92908;-71
2022/03/30 03:36:14;;;;;;;31.58;17.10;;;7.60;86.60;;;;;;5016213;28;93284;-71
2022/03/30 03:38:41;;;;;;;31.58;16.88;;;7.60;86.50;;;;;;5015019;28;110873;-71
2022/03/30 03:41:08;;;;;;;31.20;17.27;;;7.60;86.50;;;;;;5014131;28;92420;-71
2022/03/30 03:43:36;;;;;;;34.55;15.85;;;7.60;86.50;;;;;;5031908;28;91820;-71
2022/03/30 03:46:04;;;;;;;30.23;16.55;;;7.60;86.60;;;;;;5015698;28;93261;-71
2022/03/30 03:48:31;;;;;;;29.15;16.55;;;7.60;86.70;;;;;;5014844;28;93645;-71
2022/03/30 03:50:58;;;;;;;32.65;16.40;;;7.60;86.80;;;;;;5012962;28;94941;-71
2022/03/30 03:53:25;;;;;;;28.35;15.70;;;7.60;86.90;;;;;;4998136;28;92527;-71
2022/03/30 03:55:52;;;;;;;29.23;16.50;;;7.60;86.90;;;;;;5015480;28;93344;-71
2022/03/30 03:58:19;;;;;;;30.58;15.15;;;7.60;86.90;;;;;;5015950;28;93157;-71
2022/03/30 04:00:46;;;;;;;29.10;15.98;;;7.70;86.90;;;;;;5014262;28;92427;-71
2022/03/30 04:03:13;;;;;;;28.65;14.20;;;7.70;86.80;;;;;;5031031;28;92470;-71
2022/03/30 04:05:40;;;;;;;24.33;12.95;;;7.70;86.80;;;;;;5015455;28;93361;-71
2022/03/30 04:08:08;;;;;;;30.88;14.88;;;7.70;86.70;;;;;;5014794;28;93024;-71
2022/03/30 04:10:35;;;;;;;25.60;12.48;;;7.70;86.60;;;;;;5015790;28;92643;-71
2022/03/30 04:13:06;;;;;;;24.73;12.93;;;7.70;86.70;;;;;;5015411;28;92457;-71
2022/03/30 04:15:34;;;;;;;30.45;12.65;;;7.80;86.60;;;;;;5029707;28;98637;-71
2022/03/30 04:18:03;;;;;;;22.83;12.48;;;7.80;86.60;;;;;;5013708;28;98079;-71
2022/03/30 04:20:31;;;;;;;27.48;12.15;;;7.80;86.60;;;;;;5014255;28;104945;-71
2022/03/30 04:22:58;;;;;;;26.92;12.07;;;7.80;86.60;;;;;;5015254;28;92514;-71
2022/03/30 04:25:26;;;;;;;26.05;12.85;;;7.80;86.50;;;;;;5015476;28;93368;-71
2022/03/30 04:27:53;;;;;;;27.60;12.90;;;7.80;86.60;;;;;;5013127;28;95519;-71
2022/03/30 04:30:22;;;;;;;26.98;13.05;;;7.80;86.60;;;;;;4997358;28;92433;-71
2022/03/30 04:32:49;;;;;;;27.60;13.20;;;7.80;86.60;;;;;;5030788;28;91884;-71
2022/03/30 04:35:25;;;;;;;22.95;11.82;;;7.80;86.50;;;;;;5030828;28;95899;-71
2022/03/30 04:37:56;;;;;;;25.65;13.80;;;7.80;86.70;;;;;;5030226;28;95547;-71
2022/03/30 04:40:25;;;;;;;30.20;14.02;;;7.80;86.80;;;;;;5029709;28;95847;-71
2022/03/30 04:42:52;;;;;;;27.63;13.38;;;7.80;86.90;;;;;;5030420;28;92659;-71
2022/03/30 04:45:20;;;;;;;23.35;13.13;;;7.90;87.10;;;;;;5015175;28;93229;-72
2022/03/30 04:47:48;;;;;;;24.38;13.00;;;7.80;87.40;;;;;;5015272;28;92953;-71
2022/03/30 04:50:15;;;;;;;24.70;13.65;;;7.80;87.50;;;;;;5030596;28;92560;-71
2022/03/30 04:52:42;;;;;;;23.33;12.80;;;7.80;87.80;;;;;;5013845;28;92437;-71
2022/03/30 04:55:10;;;;;;;21.77;9.85;;;7.80;87.80;;;;;;5014692;28;92472;-71
2022/03/30 04:57:38;;;;;;;16.08;7.95;;;7.70;88.40;;;;;;5015603;28;93027;-71
2022/03/30 05:00:08;;;;;;;14.20;7.45;;;7.60;89.70;;;;;;5014270;28;92521;-71
2022/03/30 05:02:36;;;;;;;17.20;7.25;;;7.50;90.50;;;;;;5015342;28;92424;-71
2022/03/30 05:05:08;;;;;;;10.80;6.47;;;7.40;90.80;;;;;;5013451;28;95646;-71
2022/03/30 05:07:35;;;;;;;9.57;5.47;;;7.50;90.90;;;;;;5015222;28;95602;-71
2022/03/30 05:10:08;;;;;;;8.65;5.10;;;7.40;91.00;;;;;;5030609;28;94841;-71
2022/03/30 05:12:35;;;;;;;4.72;2.95;;;7.40;91.00;;;;;;5014332;28;92485;-71
2022/03/30 05:15:05;;;;;;;5.20;2.88;;;7.40;91.30;;;;;;5014842;28;93188;-71
2022/03/30 05:17:32;;;;;;;5.55;2.85;;;7.20;90.90;;;;;;5014033;28;95570;-71
2022/03/30 05:19:59;;;;;;;6.50;2.53;;;7.10;91.10;;;;;;5015172;28;92509;-71
2022/03/30 05:22:26;;;;;;;3.72;2.55;;;7.10;91.20;;;;;;5014527;28;91733;-71
2022/03/30 05:24:53;;;;;;;3.63;2.60;;;7.10;91.30;;;;;;5013478;28;94247;-71
2022/03/30 05:27:20;;;;;;;7.43;2.70;;;7.00;91.30;;;;;;5023565;28;92938;-71
2022/03/30 05:29:47;;;;;;;7.38;2.80;;;7.00;91.40;;;;;;5015694;28;94832;-71
2022/03/30 05:32:14;;;;;;;2.65;2.33;;;6.90;91.30;;;;;;5034835;28;92441;-71
2022/03/30 05:34:41;;;;;;;3.42;2.17;;;6.90;91.20;;;;;;4999593;28;111993;-71
2022/03/30 05:37:10;;;;;;;3.88;2.10;;;6.90;91.20;;;;;;5016822;28;93034;-71
2022/03/30 05:39:41;;;;;;;2.55;1.98;;;6.80;91.10;;;;;;5017363;28;92514;-71
2022/03/30 05:42:09;;;;;;;3.65;2.50;;;6.70;91.20;;;;;;5000986;28;92583;-71
2022/03/30 05:44:37;;;;;;;2.88;1.60;;;6.80;91.30;;;;;;5034851;28;93195;-71
2022/03/30 05:47:04;;;;;;;1.90;1.50;;;6.80;91.10;;;;;;5034783;28;93142;-71
2022/03/30 05:49:31;;;;;;;2.03;1.55;;;6.70;90.90;;;;;;5017085;28;92474;-71
2022/03/30 05:51:58;;;;;;;1.38;1.27;;;6.80;91.10;;;;;;5034750;28;92481;-71
2022/03/30 05:54:25;;;;;;;2.20;1.50;;;6.70;90.90;;;;;;5015259;28;110819;-71
2022/03/30 05:57:01;;;;;;;2.67;2.05;;;6.70;90.90;;;;;;5034809;28;95420;-71
2022/03/30 05:59:37;;;;;;;1.35;1.25;;;6.70;91.00;;;;;;5000527;28;93171;-71
2022/03/30 06:02:06;;;;;;;2.08;1.50;;;6.70;91.00;;;;;;5034987;28;92390;-71
2022/03/30 06:04:34;;;;;;;1.88;1.50;;;6.60;90.90;;;;;;5036674;27;93209;-71
2022/03/30 06:07:01;;;;;;;1.70;1.60;;;6.60;91.10;;;;;;5003320;28;95487;-71
2022/03/30 06:09:29;;;;;;;1.10;1.10;;;6.60;91.00;;;;;;5038428;28;92350;-71
2022/03/30 06:12:06;;;;;;;1.70;1.60;;;6.60;91.00;;;;;;5037113;28;91774;-71
2022/03/30 06:14:34;;;;;;;1.45;1.35;;;6.60;91.10;;;;;;5037852;28;95151;-71
2022/03/30 06:17:05;;;;;;;1.50;1.40;;;6.60;91.10;;;;;;5037842;28;92970;-71
2022/03/30 06:19:33;;;;;;;1.23;1.00;;;6.60;90.90;;;;;;5036919;28;94762;-71
2022/03/30 06:22:05;;;;;;;1.13;1.13;;;6.70;90.90;;;;;;5036701;28;92623;-71
2022/03/30 06:24:35;;;;;;;0.90;0.90;;;6.70;90.80;;;;;;5020161;28;93262;-71
2022/03/30 06:27:04;;;;;;;1.20;1.00;;;6.70;90.50;;;;;;5016060;28;93040;-71
2022/03/30 06:29:35;;;;;;;1.15;1.15;;;6.80;90.40;;;;;;5016779;28;92579;-71
2022/03/30 06:32:03;;;;;;;1.48;1.27;;;6.80;90.40;;;;;;5016937;28;92830;-71
2022/03/30 06:34:30;;;;;;;1.10;1.10;;;6.90;90.20;;;;;;5017610;28;93356;-71
2022/03/30 06:36:58;;;;;;;1.10;1.10;;;7.00;90.10;;;;;;5016750;28;95332;-71
2022/03/30 06:39:25;;;;;;;1.40;1.30;;;7.10;89.90;;;;;;5017461;28;92429;-71
2022/03/30 06:41:53;;;;;;;1.40;1.30;;;7.30;89.70;;;;;;5016240;28;92477;-71
2022/03/30 06:44:20;;;;;;;1.67;1.33;;;7.50;89.00;;;;;;5014426;28;98145;-71
2022/03/30 06:46:47;;;;;;;2.88;1.30;;;7.70;88.40;;;;;;5015991;28;98019;-71
2022/03/30 06:49:14;;;;;;;1.33;1.10;;;7.90;87.80;;;;;;5016413;28;92533;-71
2022/03/30 06:51:41;;;;;;;1.40;1.10;;;8.10;86.30;;;;;;5016447;28;92506;-71
2022/03/30 06:54:08;;;;;;;1.00;0.90;;;8.30;85.90;;;;;;5015487;28;95664;-71
2022/03/30 06:56:35;;;;;;;1.30;1.20;;;8.30;84.10;;;;;;5017179;28;97614;-71
2022/03/30 06:59:02;;;;;;;1.65;1.48;;;8.30;83.10;;;;;;4999538;28;92413;-71
2022/03/30 07:01:34;;;;;;;3.03;1.55;;;8.40;83.60;;;;;;5016515;28;91800;-71
2022/03/30 07:04:02;;;;;;;1.58;1.30;;;8.50;83.20;;;;;;5015836;28;94495;-71
2022/03/30 07:06:29;;;;;;;1.60;1.40;;;8.60;83.40;;;;;;5032404;28;92916;-71
2022/03/30 07:11:41;;;;;;;2.65;1.70;;;8.60;83.00;;;;;;5017249;28;92456;-71
2022/03/30 07:14:08;;;;;;;1.70;1.60;;;8.70;82.20;;;;;;5015309;28;95786;-71
2022/03/30 07:16:35;;;;;;;1.48;1.38;;;8.90;82.50;;;;;;5015974;28;92973;-70
2022/03/30 07:19:02;;;;;;;1.52;1.42;;;8.90;81.10;;;;;;5015962;28;92400;-71
2022/03/30 07:21:29;;;;;;;1.40;1.30;;;9.00;81.40;;;;;;5015121;28;99213;-71
2022/03/30 07:23:56;;;;;;;2.05;1.35;;;8.90;80.80;;;;;;4998848;28;94218;-71
2022/03/30 07:26:23;;;;;;;1.77;1.15;;;8.90;80.70;;;;;;4999617;28;95736;-71
2022/03/30 07:28:50;;;;;;;1.58;1.10;;;8.90;80.70;;;;;;5037460;28;92826;-71
2022/03/30 07:31:17;;;;;;;1.70;1.38;;;8.80;80.90;;;;;;5036794;28;92483;-71
2022/03/30 07:33:44;;;;;;;1.50;1.40;;;8.80;80.30;;;;;;5017441;28;95768;-70
2022/03/30 07:36:11;;;;;;;2.95;1.40;;;8.70;79.70;;;;;;5018820;28;95463;-71
2022/03/30 07:38:38;;;;;;;3.30;0.98;;;8.60;80.50;;;;;;5018802;28;99335;-71
2022/03/30 07:41:05;;;;;;;3.35;1.30;;;8.80;80.20;;;;;;5018591;28;92625;-70
2022/03/30 07:43:32;;;;;;;2.15;1.13;;;8.80;79.40;;;;;;5018594;28;93191;-70
2022/03/30 07:45:59;;;;;;;1.10;1.00;;;8.90;79.20;;;;;;5036753;28;93365;-71
2022/03/30 07:48:27;;;;;;;2.40;1.10;;;8.90;79.10;;;;;;5018233;28;92510;-70
2022/03/30 07:50:54;;;;;;;3.00;1.10;;;8.80;78.80;;;;;;5035456;28;91910;-70
2022/03/30 07:53:25;;;;;;;2.53;1.23;;;8.90;78.80;;;;;;5036226;28;93134;-71
2022/03/30 07:55:52;;;;;;;1.88;1.08;;;8.90;79.20;;;;;;5001496;28;95720;-71
2022/03/30 07:58:20;;;;;;;2.17;1.10;;;8.90;79.50;;;;;;5017711;28;95362;-71
2022/03/30 08:00:47;;;;;;;2.63;0.90;;;8.90;79.10;;;;;;5034815;28;101901;-71
2022/03/30 08:03:14;;;;;;;3.95;1.20;;;9.00;78.60;;;;;;5036011;28;93335;-71
2022/03/30 08:05:42;;;;;;;2.60;1.40;;;9.10;78.50;;;;;;5036248;28;92531;-71
2022/03/30 08:08:09;;;;;;;2.38;1.77;;;9.20;78.40;;;;;;5036454;28;92441;-71
2022/03/30 08:10:37;;;;;;;2.63;1.52;;;9.20;77.20;;;;;;5036086;28;92552;-71
2022/03/30 08:13:05;;;;;;;2.00;1.35;;;9.40;77.20;;;;;;5018258;28;93222;-70
2022/03/30 08:15:36;;;;;;;3.85;1.65;;;9.50;77.00;;;;;;5036201;28;93060;-70
2022/03/30 08:18:05;;;;;;;2.45;1.70;;;9.70;76.70;;;;;;5036252;28;92537;-70
2022/03/30 08:23:17;;;;;;;3.35;1.38;;;10.20;73.00;;;;;;5033298;28;98115;-71
2022/03/30 08:25:44;;;;;;;2.83;1.40;;;10.40;72.00;;;;;;5017908;28;101216;-71
2022/03/30 08:28:11;;;;;;;1.40;0.82;;;10.40;71.20;;;;;;5033810;28;92520;-70
2022/03/30 08:30:39;;;;;;;2.88;1.42;;;10.60;70.90;;;;;;5017749;28;92495;-71
2022/03/30 08:33:06;;;;;;;1.17;0.90;;;10.50;71.40;;;;;;5017835;28;92981;-70
2022/03/30 08:35:34;;;;;;;2.08;1.58;;;10.60;71.40;;;;;;5017883;28;92876;-71
2022/03/30 08:38:01;;;;;;;4.05;1.30;;;10.60;71.00;;;;;;5036166;28;92837;-71
2022/03/30 08:40:28;;;;;;;1.85;1.10;;;10.60;71.60;;;;;;5035950;28;91710;-71
2022/03/30 08:42:55;;;;;;;1.98;1.23;;;10.60;70.90;;;;;;5017838;28;93141;-70
2022/03/30 08:45:24;;;;;;;1.65;0.90;;;10.60;70.40;;;;;;5035533;28;93049;-71
2022/03/30 08:47:51;;;;;;;1.00;1.00;;;10.70;70.00;;;;;;5000489;28;94936;-71
2022/03/30 08:50:19;;;;;;;5.97;1.33;;;10.80;69.50;;;;;;5035778;28;92491;-71
2022/03/30 08:52:49;;;;;;;2.78;1.65;;;10.80;69.30;;;;;;5017913;28;93138;-71
2022/03/30 08:55:17;;;;;;;1.75;1.20;;;10.60;69.20;;;;;;5034017;28;94084;-71
2022/03/30 08:57:44;;;;;;;4.30;1.42;;;10.60;69.70;;;;;;5035465;28;92418;-71
2022/03/30 09:00:16;;;;;;;2.40;1.30;;;10.60;69.80;;;;;;5034407;28;92501;-71
2022/03/30 09:02:49;;;;;;;1.80;1.38;;;10.30;69.90;;;;;;5033882;28;96075;-71
2022/03/30 09:05:21;;;;;;;3.80;1.20;;;10.40;70.80;;;;;;5018041;28;95937;-71
2022/03/30 09:07:54;;;;;;;3.92;1.45;;;10.40;70.10;;;;;;5035185;28;92391;-71
2022/03/30 09:10:24;;;;;;;2.87;1.23;;;10.40;70.90;;;;;;5035894;28;92474;-71
2022/03/30 09:12:52;;;;;;;4.95;1.63;;;10.30;69.80;;;;;;5016124;28;95655;-71
2022/03/30 09:15:21;;;;;;;3.33;1.15;;;10.30;69.50;;;;;;5000334;28;98248;-70
2022/03/30 09:18:01;;;;;;;1.98;0.90;;;10.40;69.90;;;;;;5035808;28;92793;-71
2022/03/30 09:20:42;;;;;;;3.72;1.13;;;10.20;70.00;;;;;;5018458;28;92341;-71
2022/03/30 09:23:12;;;;;;;1.73;0.70;;;10.00;70.50;;;;;;5035486;28;93281;-71
2022/03/30 09:25:45;;;;;;;4.90;1.65;;;9.90;71.10;;;;;;5035195;28;92721;-71
2022/03/30 09:28:13;;;;;;;4.30;1.45;;;9.70;72.50;;;;;;5017067;28;92467;-71
2022/03/30 09:30:41;;;;;;;2.15;1.13;;;9.60;72.70;;;;;;5035176;28;92079;-71
2022/03/30 09:33:10;;;;;;;3.20;1.52;;;9.60;73.40;;;;;;5017525;28;93250;-70
2022/03/30 09:35:41;;;;;;;2.28;1.30;;;9.70;73.10;;;;;;5017257;28;92379;-71
2022/03/30 09:38:10;;;;;;;5.72;1.50;;;9.60;72.50;;;;;;5016579;28;94821;-71
2022/03/30 09:40:41;;;;;;;1.33;1.20;;;9.60;72.50;;;;;;5036993;28;92637;-71
2022/03/30 09:43:09;;;;;;;1.30;1.20;;;9.40;73.10;;;;;;5038588;28;93349;-71
2022/03/30 09:45:36;;;;;;;2.80;1.40;;;9.30;73.70;;;;;;5038384;28;92867;-71
2022/03/30 09:48:11;;;;;;;1.90;1.10;;;9.40;74.10;;;;;;5020463;28;92650;-71
2022/03/30 09:50:53;;;;;;;2.50;1.13;;;9.50;73.70;;;;;;5020751;28;92447;-70
2022/03/30 09:53:24;;;;;;;1.95;1.30;;;9.70;72.50;;;;;;5038407;28;93280;-71
2022/03/30 09:55:58;;;;;;;3.08;1.38;;;9.70;72.20;;;;;;5037270;28;95629;-71
2022/03/30 09:58:26;;;;;;;;;;;9.90;72.20;;;;;;5037486;28;92669;-70
2022/03/30 10:01:09;;;;;;;4.95;1.20;;;10.10;71.70;;;;;;5039100;28;92452;-71
2022/03/30 10:03:53;;;;;;;3.58;1.10;;;10.50;69.70;;;;;;5036854;28;95624;-71
2022/03/30 10:06:21;;;;;;;1.13;1.13;;;10.60;68.70;;;;;;5020393;28;95192;-71
2022/03/30 10:08:49;;;;;;;1.25;0.90;;;10.80;68.60;;;;;;5038298;28;92473;-71
2022/03/30 10:11:17;;;;;;;1.52;1.23;;;10.90;67.50;;;;;;5036657;28;92564;-71
2022/03/30 10:13:51;;;;;;;2.95;1.10;;;11.00;68.00;;;;;;5036166;28;95700;-71
2022/03/30 10:16:36;;;;;;;4.07;1.42;;;11.30;67.80;;;;;;5038049;28;92955;-71
2022/03/30 10:19:05;;;;;;;3.05;0.90;;;11.40;66.80;;;;;;5036793;28;92549;-70
2022/03/30 10:22:02;;;;;;;3.17;1.35;;;11.40;67.10;;;;;;5038260;28;92203;-71
2022/03/30 10:25:05;;;;;;;2.13;1.08;;;11.40;67.00;;;;;;5038080;28;96013;-71
2022/03/30 10:27:52;;;;;;;0.93;0.90;;;11.30;66.10;;;;;;5037687;28;93133;-71
2022/03/30 10:30:31;;;;;;;2.85;1.10;;;11.20;66.10;;;;;;5019227;28;94779;-71
2022/03/30 10:33:00;;;;;;;1.70;1.20;;;11.00;67.10;;;;;;5019795;28;92444;-71
2022/03/30 10:35:44;;;;;;;1.88;1.20;;;11.10;67.50;;;;;;5036303;28;95670;-71
2022/03/30 10:38:11;;;;;;;2.05;1.10;;;11.40;66.70;;;;;;5037846;28;92808;-71
2022/03/30 10:40:40;;;;;;;2.92;1.40;;;11.30;65.70;;;;;;5037734;28;92454;-71
2022/03/30 10:43:09;;;;;;;2.13;1.30;;;11.20;65.40;;;;;;5019430;28;92564;-70
2022/03/30 10:45:55;;;;;;;2.05;1.35;;;11.40;65.30;;;;;;5037579;28;93187;-71
2022/03/30 10:48:28;;;;;;;1.13;0.90;;;11.50;63.70;;;;;;5038191;28;92628;-71
2022/03/30 10:51:07;;;;;;;1.33;0.95;;;11.50;62.80;;;;;;5037590;28;92453;-71
2022/03/30 10:53:34;;;;;;;0.98;0.88;;;11.60;62.70;;;;;;5036522;28;92455;-71
2022/03/30 10:56:24;;;;;;;3.17;1.13;;;11.50;62.30;;;;;;5034419;28;95870;-71
2022/03/30 10:59:00;;;;;;;1.95;0.80;;;11.60;61.50;;;;;;5024790;28;95399;-71
2022/03/30 11:01:32;;;;;;;1.05;0.80;;;11.70;61.10;;;;;;5037758;28;92501;-71
2022/03/30 11:04:18;;;;;;;2.10;1.08;;;11.90;59.80;;;;;;5037075;28;92445;-71
2022/03/30 11:06:53;;;;;;;1.73;0.80;;;11.90;60.30;;;;;;5035556;28;94505;-71
2022/03/30 11:09:28;;;;;;;1.38;0.80;;;11.70;60.80;;;;;;5037326;28;92877;-71
2022/03/30 11:12:17;;;;;;;3.35;1.15;;;11.70;61.00;;;;;;5019103;28;92486;-71
2022/03/30 11:15:00;;;;;;;2.03;0.95;;;11.80;61.00;;;;;;5037648;28;92082;-71
2022/03/30 11:17:32;;;;;;;3.53;1.00;;;12.00;60.00;;;;;;5018836;28;95726;-71
2022/03/30 11:19:59;;;;;;;2.22;1.08;;;11.90;60.00;;;;;;5036754;28;92921;-71
2022/03/30 11:22:32;;;;;;;2.22;1.25;;;11.80;60.10;;;;;;5035942;28;94868;-71
2022/03/30 11:25:23;;;;;;;1.90;1.25;;;11.80;59.80;;;;;;5035802;28;92453;-71
2022/03/30 11:28:01;;;;;;;1.25;1.00;;;11.80;58.90;;;;;;5034683;28;96853;-71
2022/03/30 11:30:30;;;;;;;2.78;0.80;;;11.90;59.10;;;;;;5037000;28;92973;-71
2022/03/30 11:33:02;;;;;;;2.22;0.93;;;11.70;59.30;;;;;;5018564;28;92472;-71
2022/03/30 11:35:36;;;;;;;2.47;1.00;;;11.50;59.30;;;;;;5019037;28;92697;-71
2022/03/30 11:38:27;;;;;;;0.97;0.80;;;11.50;59.90;;;;;;5018640;28;93179;-71
2022/03/30 11:41:06;;;;;;;1.98;0.88;;;11.60;59.20;;;;;;5035418;28;95396;-70
2022/03/30 11:45:12;;;;;;;1.20;0.90;;;11.70;59.10;;;;;;5037275;28;92689;-71
2022/03/30 11:46:29;;;;;;;3.30;0.93;;;11.50;59.60;;;;;;5034920;28;92542;-71
2022/03/30 11:49:00;;;;;;;2.80;0.98;;;11.40;59.30;;;;;;5035010;28;95619;-71
2022/03/30 11:51:28;;;;;;;2.50;1.10;;;11.50;59.90;;;;;;5018813;28;95446;-71
2022/03/30 11:54:13;;;;;;;0.98;0.93;;;11.30;60.30;;;;;;5018524;28;92474;-71
2022/03/30 11:56:40;;;;;;;1.63;0.70;;;11.40;60.20;;;;;;5036717;28;92411;-71
2022/03/30 11:59:08;;;;;;;1.33;1.10;;;11.20;59.50;;;;;;5000817;28;114492;-71
2022/03/30 12:01:40;;;;;;;2.90;1.10;;;11.20;59.60;;;;;;5001669;28;95744;-71
2022/03/30 12:04:07;;;;;;;2.58;1.00;;;11.30;60.10;;;;;;5018054;28;92503;-71
2022/03/30 12:06:34;;;;;;;2.45;1.10;;;11.40;60.30;;;;;;5037028;28;91799;-70
2022/03/30 12:09:01;;;;;;;3.13;1.20;;;11.40;59.30;;;;;;5035999;28;93852;-71
2022/03/30 12:11:29;;;;;;;1.55;0.90;;;11.40;59.60;;;;;;5036379;28;93119;-71
2022/03/30 12:13:59;;;;;;;2.83;1.00;;;11.60;59.70;;;;;;5017224;28;94922;-71
2022/03/30 12:16:32;;;;;;;1.38;1.27;;;11.50;58.60;;;;;;5034710;28;92656;-70
2022/03/30 12:18:59;;;;;;;4.03;1.38;;;11.40;58.70;;;;;;5019402;28;93229;-72
2022/03/30 12:21:38;;;;;;;1.20;1.10;;;11.50;58.10;;;;;;5001450;28;92989;-70
2022/03/30 12:24:07;;;;;;;2.17;1.08;;;11.70;57.30;;;;;;5036294;28;92454;-70
2022/03/30 12:26:44;;;;;;;2.25;1.27;;;11.80;57.10;;;;;;5019577;28;92532;-70
2022/03/30 12:29:15;;;;;;;2.33;1.20;;;11.90;56.80;;;;;;5000875;28;95693;-70
2022/03/30 12:31:45;;;;;;;3.25;1.10;;;12.00;57.00;;;;;;5034597;28;95467;-69
2022/03/30 12:34:20;;;;;;;3.75;1.30;;;12.20;56.20;;;;;;5035784;28;92353;-70
2022/03/30 12:36:49;;;;;;;1.80;1.45;;;12.30;55.80;;;;;;5034495;28;92409;-70
2022/03/30 12:39:26;;;;;;;1.13;1.00;;;12.30;55.60;;;;;;5034720;28;95574;-70
2022/03/30 12:42:22;;;;;;;2.40;1.00;;;12.40;54.60;;;;;;5034084;28;97931;-70
2022/03/30 12:44:52;;;;;;;1.48;0.90;;;12.20;53.20;;;;;;5036292;28;92533;-70
2022/03/30 12:47:26;;;;;;;;;;;11.90;53.00;;;;;;5036421;28;92974;-70
2022/03/30 12:49:54;;;;;;;2.78;1.17;;;11.70;54.30;;;;;;5034986;28;95806;-70
2022/03/30 12:52:22;;;;;;;3.67;1.33;;;11.80;55.60;;;;;;5035797;28;93172;-71
2022/03/30 12:54:52;;;;;;;3.28;1.23;;;11.70;56.60;;;;;;5035877;28;92913;-72
2022/03/30 12:57:27;;;;;;;1.77;1.13;;;11.70;57.10;;;;;;5035944;28;91633;-70
2022/03/30 13:00:14;;;;;;;4.20;1.30;;;11.80;57.60;;;;;;5035137;28;93340;-70
2022/03/30 13:02:41;;;;;;;2.30;1.40;;;11.80;57.40;;;;;;5035559;28;93006;-70
2022/03/30 13:05:20;;;;;;;2.75;1.00;;;11.60;59.00;;;;;;5016454;28;94855;-69
2022/03/30 13:07:51;;;;;;;1.80;1.23;;;11.50;59.40;;;;;;5035791;28;92467;-70